KCEZ/CEZ METAR and TAF weather

Enter ICAO airport designator
Station Type Date Time Source
KCEZ METAR 2021/10/22 19:53 UTC NOAA

KCEZ 221953Z AUTO 23009KT 10SM CLR 19/M04 A3015 RMK AO2 SLP172 T01941039


Station Type Date Time Source
KCEZ Decoded METAR 2021/10/22 19:53 UTC NOAA

CORTEZ MONTEZUMA COUNTY AIRPORT , CO, United States (KCEZ) 37-18N 108-38W 1797M
Oct 22, 2021 - 03:53 PM EDT / 2021.10.22 1953 UTC
Wind: from the SW (230 degrees) at 10 MPH (9 KT):0
Visibility: 10 mile(s):0
Sky conditions: clear
Temperature: 66.9 F (19.4 C)
Dew Point: 25.0 F (-3.9 C)
Relative Humidity: 20%
Pressure (altimeter): 30.15 in. Hg (1020 hPa)
ob: KCEZ 221953Z AUTO 23009KT 10SM CLR 19/M04 A3015 RMK AO2 SLP172 T01941039
cycle: 20

Station Type Date Time Source
KCEZ TAF UTC NOAA

Error!

Example: see airport list